createdAt,value
2018-08-22T00:00:19.500Z,16.90
2018-08-22T00:02:47.735Z,16.90
2018-08-22T00:05:15.922Z,16.90
2018-08-22T00:07:44.155Z,16.90
2018-08-22T00:10:12.923Z,16.90
2018-08-22T00:12:41.155Z,16.90
2018-08-22T00:15:09.412Z,16.90
2018-08-22T00:17:37.591Z,16.90
2018-08-22T00:20:05.972Z,16.90
2018-08-22T00:22:34.288Z,16.90
2018-08-22T00:25:02.395Z,16.90
2018-08-22T00:27:30.595Z,16.90
2018-08-22T00:29:58.787Z,16.80
2018-08-22T00:32:27.040Z,16.80
2018-08-22T00:34:55.253Z,16.80
2018-08-22T00:37:23.513Z,16.80
2018-08-22T00:39:52.506Z,16.80
2018-08-22T00:42:20.706Z,16.70
2018-08-22T00:44:48.935Z,16.70
2018-08-22T00:47:17.138Z,16.70
2018-08-22T00:49:45.602Z,16.70
2018-08-22T00:52:13.838Z,16.70
2018-08-22T00:54:42.050Z,16.70
2018-08-22T00:57:10.288Z,16.60
2018-08-22T00:59:38.684Z,16.60
2018-08-22T01:02:06.939Z,16.60
2018-08-22T01:04:36.064Z,16.60
2018-08-22T01:07:04.302Z,16.50
2018-08-22T01:09:32.499Z,16.50
2018-08-22T01:12:00.706Z,16.50
2018-08-22T01:14:30.156Z,16.50
2018-08-22T01:16:59.552Z,16.50
2018-08-22T01:19:28.971Z,16.40
2018-08-22T01:21:58.359Z,16.40
2018-08-22T01:24:27.584Z,16.50
2018-08-22T01:26:57.267Z,16.40
2018-08-22T01:29:26.245Z,16.40
2018-08-22T01:31:55.241Z,16.40
2018-08-22T01:34:24.531Z,16.40
2018-08-22T01:36:53.914Z,16.30
2018-08-22T01:39:22.148Z,16.30
2018-08-22T01:41:50.380Z,16.30
2018-08-22T01:44:18.567Z,16.20
2018-08-22T01:46:46.773Z,16.20
2018-08-22T01:49:14.965Z,16.20
2018-08-22T01:51:43.215Z,16.20
2018-08-22T01:54:11.403Z,16.20
2018-08-22T01:56:39.595Z,16.20
2018-08-22T01:59:07.832Z,16.20
2018-08-22T02:01:36.031Z,16.20
2018-08-22T02:04:04.259Z,16.10
2018-08-22T02:06:32.515Z,16.10
2018-08-22T02:09:01.215Z,16.10
2018-08-22T02:11:29.416Z,16.00
2018-08-22T02:13:57.690Z,16.00
2018-08-22T02:16:25.925Z,16.00
2018-08-22T02:18:54.138Z,16.00
2018-08-22T02:21:22.376Z,16.00
2018-08-22T02:23:50.592Z,15.90
2018-08-22T02:26:18.819Z,15.90
2018-08-22T02:28:47.051Z,15.80
2018-08-22T02:31:15.279Z,15.80
2018-08-22T02:33:43.479Z,15.80
2018-08-22T02:36:11.708Z,15.70
2018-08-22T02:38:39.913Z,15.80
2018-08-22T02:41:08.111Z,15.80
2018-08-22T02:43:36.338Z,15.80
2018-08-22T02:46:04.797Z,15.70
2018-08-22T02:48:37.234Z,15.70
2018-08-22T02:51:05.411Z,15.70
2018-08-22T02:53:33.623Z,15.70
2018-08-22T02:56:01.839Z,15.70
2018-08-22T02:58:30.035Z,15.70
2018-08-22T03:00:58.266Z,15.70
2018-08-22T03:03:26.495Z,15.70
2018-08-22T03:05:54.986Z,15.60
2018-08-22T03:08:23.248Z,15.60
2018-08-22T03:10:51.455Z,15.60
2018-08-22T03:13:19.705Z,15.50
2018-08-22T03:15:47.883Z,15.50
2018-08-22T03:18:16.127Z,15.50
2018-08-22T03:20:44.518Z,15.60
2018-08-22T03:23:12.755Z,15.60
2018-08-22T03:25:41.162Z,15.50
2018-08-22T03:28:09.542Z,15.50
2018-08-22T03:30:37.744Z,15.50
2018-08-22T03:33:05.995Z,15.50
2018-08-22T03:35:34.369Z,15.50
2018-08-22T03:38:02.564Z,15.50
2018-08-22T03:40:30.803Z,15.50
2018-08-22T03:42:59.415Z,15.50
2018-08-22T03:45:27.625Z,15.50
2018-08-22T03:47:55.853Z,15.50
2018-08-22T03:50:24.084Z,15.40
2018-08-22T03:52:52.328Z,15.50
2018-08-22T03:55:20.584Z,15.50
2018-08-22T03:57:48.784Z,15.50
2018-08-22T04:00:17.005Z,15.50
2018-08-22T04:02:45.248Z,15.50
2018-08-22T04:05:13.449Z,15.50
2018-08-22T04:07:41.695Z,15.40
2018-08-22T04:10:09.919Z,15.40
2018-08-22T04:12:38.103Z,15.50
2018-08-22T04:15:06.311Z,15.50
2018-08-22T04:17:36.807Z,15.50
2018-08-22T04:20:05.543Z,15.50
2018-08-22T04:22:34.036Z,15.50
2018-08-22T04:25:02.474Z,15.50
2018-08-22T04:27:30.692Z,15.50
2018-08-22T04:29:58.895Z,15.60
2018-08-22T04:32:27.826Z,15.60
2018-08-22T04:34:56.211Z,15.60
2018-08-22T04:37:24.678Z,15.70
2018-08-22T04:39:52.935Z,15.70
2018-08-22T04:42:21.192Z,15.70
2018-08-22T04:44:49.722Z,15.80
2018-08-22T04:47:18.054Z,15.80
2018-08-22T04:49:46.278Z,15.80
2018-08-22T04:52:15.059Z,15.90
2018-08-22T04:54:43.320Z,15.90
2018-08-22T04:57:11.507Z,16.00
2018-08-22T04:59:39.723Z,16.00
2018-08-22T05:02:08.023Z,16.00
2018-08-22T05:04:36.257Z,16.10
2018-08-22T05:07:04.488Z,16.20
2018-08-22T05:09:32.739Z,16.20
2018-08-22T05:12:00.931Z,16.30
2018-08-22T05:14:29.164Z,16.30
2018-08-22T05:16:57.400Z,16.40
2018-08-22T05:19:25.626Z,16.40
2018-08-22T05:21:53.880Z,16.50
2018-08-22T05:24:22.163Z,16.60
2018-08-22T05:26:50.337Z,16.60
2018-08-22T05:29:18.587Z,16.70
2018-08-22T05:31:46.835Z,16.80
2018-08-22T05:34:15.050Z,17.00
2018-08-22T05:36:43.239Z,17.10
2018-08-22T05:39:12.919Z,17.10
2018-08-22T05:41:41.565Z,17.20
2018-08-22T05:44:09.856Z,17.50
2018-08-22T05:46:38.067Z,18.20
2018-08-22T05:49:06.286Z,18.90
2018-08-22T05:51:34.488Z,18.90
2018-08-22T05:54:02.732Z,18.70
2018-08-22T05:56:30.976Z,18.80
2018-08-22T05:58:59.209Z,18.60
2018-08-22T06:01:27.440Z,18.50
2018-08-22T06:03:55.658Z,18.50
2018-08-22T06:06:23.927Z,18.60
2018-08-22T06:08:52.168Z,18.70
2018-08-22T06:11:20.400Z,18.80
2018-08-22T06:13:48.655Z,18.90
2018-08-22T06:16:16.881Z,18.90
2018-08-22T06:18:45.094Z,19.10
2018-08-22T06:21:13.460Z,19.90
2018-08-22T06:23:41.779Z,21.00
2018-08-22T06:26:10.064Z,22.20
2018-08-22T06:28:38.317Z,23.50
2018-08-22T06:31:06.535Z,24.80
2018-08-22T06:33:34.760Z,25.90
2018-08-22T06:36:02.951Z,27.00
2018-08-22T06:38:31.168Z,28.00
2018-08-22T06:40:59.387Z,28.80
2018-08-22T06:43:27.624Z,29.30
2018-08-22T06:45:55.840Z,29.80
2018-08-22T06:48:24.052Z,30.40
2018-08-22T06:50:52.269Z,31.00
2018-08-22T06:53:20.507Z,30.80
2018-08-22T06:55:48.716Z,31.40
2018-08-22T06:58:16.928Z,31.70
2018-08-22T07:00:45.163Z,32.10
2018-08-22T07:03:13.394Z,32.50
2018-08-22T07:05:41.613Z,32.60
2018-08-22T07:08:09.917Z,32.70
2018-08-22T07:10:38.137Z,32.90
2018-08-22T07:13:06.540Z,32.90
2018-08-22T07:15:34.757Z,33.20
2018-08-22T07:18:03.028Z,33.50
2018-08-22T07:20:31.312Z,33.40
2018-08-22T07:22:59.552Z,33.30
2018-08-22T07:25:27.832Z,33.50
2018-08-22T07:27:56.025Z,33.40
2018-08-22T07:30:24.244Z,32.90
2018-08-22T07:32:52.472Z,33.00
2018-08-22T07:35:20.715Z,32.70
2018-08-22T07:37:48.931Z,32.20
2018-08-22T07:40:17.152Z,31.20
2018-08-22T07:42:45.363Z,30.50
2018-08-22T07:45:13.618Z,30.00
2018-08-22T07:47:41.832Z,29.20
2018-08-22T07:50:10.038Z,28.90
2018-08-22T07:52:48.740Z,28.40
2018-08-22T07:55:17.878Z,27.70
2018-08-22T07:57:46.105Z,27.40
2018-08-22T08:00:14.427Z,26.90
2018-08-22T08:02:42.680Z,26.30
2018-08-22T08:05:10.909Z,25.90
2018-08-22T08:07:39.176Z,25.70
2018-08-22T08:10:07.962Z,25.60
2018-08-22T08:12:40.132Z,25.50
2018-08-22T08:15:08.993Z,25.30
2018-08-22T08:17:37.229Z,25.30
2018-08-22T08:20:05.503Z,25.40
2018-08-22T08:22:33.699Z,25.40
2018-08-22T08:25:01.921Z,25.20
2018-08-22T08:27:30.164Z,25.20
2018-08-22T08:29:58.387Z,25.30
2018-08-22T08:32:26.598Z,25.20
2018-08-22T08:34:54.917Z,25.30
2018-08-22T08:37:23.162Z,25.40
2018-08-22T08:39:51.389Z,25.50
2018-08-22T08:42:19.596Z,25.70
2018-08-22T08:44:47.779Z,25.80
2018-08-22T08:47:15.988Z,25.80
2018-08-22T08:49:44.224Z,25.90
2018-08-22T08:52:12.480Z,25.90
2018-08-22T08:54:40.827Z,26.00
2018-08-22T08:57:09.093Z,25.90
2018-08-22T08:59:38.445Z,26.00
2018-08-22T09:02:06.808Z,26.10
2018-08-22T09:04:35.088Z,26.20
2018-08-22T09:07:03.503Z,26.10
2018-08-22T09:09:31.792Z,26.10
2018-08-22T09:12:01.064Z,26.10
2018-08-22T09:14:29.821Z,26.00
2018-08-22T09:16:58.839Z,26.00
2018-08-22T09:19:27.696Z,26.10
2018-08-22T09:21:55.866Z,26.30
2018-08-22T09:24:24.133Z,26.50
2018-08-22T09:26:52.324Z,26.60
2018-08-22T09:29:20.520Z,26.70
2018-08-22T09:31:48.739Z,26.80
2018-08-22T09:34:16.955Z,26.90
2018-08-22T09:36:45.185Z,26.90
2018-08-22T09:39:14.162Z,26.90
2018-08-22T09:41:42.547Z,26.80
2018-08-22T09:44:10.776Z,26.90
2018-08-22T09:46:39.863Z,26.80
2018-08-22T09:49:08.212Z,26.90
2018-08-22T09:51:36.453Z,27.10
2018-08-22T09:54:04.668Z,27.20
2018-08-22T09:56:32.977Z,27.20
2018-08-22T09:59:01.281Z,27.40
2018-08-22T10:01:34.952Z,27.50
2018-08-22T10:04:03.311Z,27.40
2018-08-22T10:06:37.725Z,27.30
2018-08-22T10:09:18.640Z,27.20
2018-08-22T10:11:46.927Z,27.30
2018-08-22T10:14:15.313Z,27.50
2018-08-22T10:16:43.671Z,27.70
2018-08-22T10:19:11.899Z,27.70
2018-08-22T10:21:40.111Z,27.80
2018-08-22T10:24:08.333Z,27.90
2018-08-22T10:26:36.675Z,27.90
2018-08-22T10:29:05.315Z,28.00
2018-08-22T10:31:33.565Z,28.00
2018-08-22T10:34:01.831Z,28.10
2018-08-22T10:36:30.045Z,28.20
2018-08-22T10:38:58.219Z,28.20
2018-08-22T10:41:26.476Z,28.30
2018-08-22T10:43:54.675Z,28.30
2018-08-22T10:46:22.909Z,28.40
2018-08-22T10:48:51.144Z,28.50
2018-08-22T10:51:19.369Z,28.70
2018-08-22T10:53:47.620Z,28.40
2018-08-22T10:56:15.873Z,28.40
2018-08-22T10:58:44.128Z,28.50
2018-08-22T11:01:19.016Z,28.60
2018-08-22T11:03:47.473Z,28.80
2018-08-22T11:06:15.688Z,28.90
2018-08-22T11:08:43.950Z,28.90
2018-08-22T11:11:12.154Z,28.80
2018-08-22T11:13:40.385Z,28.80
2018-08-22T11:16:08.854Z,28.80
2018-08-22T11:18:37.072Z,28.90
2018-08-22T11:21:16.636Z,29.00
2018-08-22T11:23:56.371Z,28.70
2018-08-22T11:26:36.160Z,28.70
2018-08-22T11:29:15.809Z,28.90
2018-08-22T11:31:55.654Z,29.00
2018-08-22T11:34:35.346Z,29.10
2018-08-22T11:37:05.502Z,29.20
2018-08-22T11:39:33.888Z,29.30
2018-08-22T11:42:02.544Z,29.30
2018-08-22T11:44:30.940Z,29.40
2018-08-22T11:46:59.856Z,29.20
2018-08-22T11:49:29.441Z,29.10
2018-08-22T11:51:58.056Z,29.20
2018-08-22T11:54:26.404Z,29.30
2018-08-22T11:56:54.593Z,29.30
2018-08-22T11:59:22.859Z,29.30
2018-08-22T12:01:51.465Z,29.10
2018-08-22T12:04:20.091Z,29.10
2018-08-22T12:06:48.401Z,29.20
2018-08-22T12:09:16.661Z,29.30
2018-08-22T12:11:44.860Z,29.50
2018-08-22T12:14:13.106Z,29.50
2018-08-22T12:16:41.801Z,29.60
2018-08-22T12:19:10.541Z,29.70
2018-08-22T12:21:39.479Z,29.70
2018-08-22T12:24:07.694Z,29.60
2018-08-22T12:26:36.100Z,29.60
2018-08-22T12:29:04.464Z,29.80
2018-08-22T12:31:33.077Z,29.90
2018-08-22T12:34:01.357Z,29.90
2018-08-22T12:36:29.621Z,29.90
2018-08-22T12:38:57.824Z,29.90
2018-08-22T12:41:26.295Z,29.80
2018-08-22T12:43:54.732Z,29.70
2018-08-22T12:46:23.076Z,29.70
2018-08-22T12:48:51.286Z,29.80
2018-08-22T12:51:19.703Z,29.80
2018-08-22T12:53:47.936Z,29.80
2018-08-22T12:56:16.164Z,29.60
2018-08-22T12:58:44.420Z,29.60
2018-08-22T13:01:12.625Z,29.80
2018-08-22T13:03:40.816Z,29.90
2018-08-22T13:06:09.051Z,30.00
2018-08-22T13:08:37.293Z,30.00
2018-08-22T13:11:05.593Z,30.20
2018-08-22T13:13:33.869Z,30.20
2018-08-22T13:16:02.233Z,30.20
2018-08-22T13:18:30.517Z,30.10
2018-08-22T13:20:58.759Z,30.20
2018-08-22T13:23:26.952Z,30.20
2018-08-22T13:25:55.143Z,30.20
2018-08-22T13:28:23.391Z,30.20
2018-08-22T13:30:51.601Z,30.20
2018-08-22T13:33:19.841Z,30.20
2018-08-22T13:35:48.059Z,30.00
2018-08-22T13:38:16.269Z,30.00
2018-08-22T13:40:44.492Z,30.00
2018-08-22T13:43:12.772Z,30.00
2018-08-22T13:45:41.044Z,30.00
2018-08-22T13:48:09.291Z,29.90
2018-08-22T13:50:37.571Z,30.00
2018-08-22T13:53:05.837Z,30.00
2018-08-22T13:55:34.100Z,30.00
2018-08-22T13:58:02.461Z,30.10
2018-08-22T14:00:30.696Z,30.10
2018-08-22T14:02:58.947Z,30.10
2018-08-22T14:05:27.199Z,30.10
2018-08-22T14:07:55.624Z,30.10
2018-08-22T14:10:23.827Z,30.20
2018-08-22T14:12:52.035Z,30.20
2018-08-22T14:15:20.260Z,30.30
2018-08-22T14:17:48.490Z,30.40
2018-08-22T14:20:16.765Z,30.40
2018-08-22T14:22:45.000Z,30.40
2018-08-22T14:25:13.196Z,30.30
2018-08-22T14:27:41.445Z,30.30
2018-08-22T14:30:09.688Z,30.40
2018-08-22T14:32:37.896Z,30.50
2018-08-22T14:35:06.248Z,30.60
2018-08-22T14:37:34.460Z,30.70
2018-08-22T14:40:02.692Z,30.80
2018-08-22T14:42:31.009Z,30.80
2018-08-22T14:44:59.310Z,30.70
2018-08-22T14:47:27.597Z,30.50
2018-08-22T14:49:55.969Z,30.20
2018-08-22T14:52:24.186Z,30.10
2018-08-22T14:54:52.404Z,30.00
2018-08-22T14:57:20.644Z,30.10
2018-08-22T14:59:48.865Z,30.30
2018-08-22T15:02:17.125Z,30.40
2018-08-22T15:04:45.295Z,30.40
2018-08-22T15:07:13.515Z,30.50
2018-08-22T15:09:41.724Z,30.40
2018-08-22T15:12:09.944Z,30.50
2018-08-22T15:14:38.195Z,30.60
2018-08-22T15:17:06.502Z,30.60
2018-08-22T15:19:34.837Z,30.60
2018-08-22T15:22:03.217Z,30.60
2018-08-22T15:24:31.698Z,30.60
2018-08-22T15:27:00.242Z,30.50
2018-08-22T15:29:28.467Z,30.40
2018-08-22T15:31:56.701Z,30.30
2018-08-22T15:34:35.000Z,30.30
2018-08-22T15:37:03.403Z,30.30
2018-08-22T15:39:31.673Z,30.30
2018-08-22T15:42:00.020Z,30.20
2018-08-22T15:44:28.215Z,30.20
2018-08-22T15:46:56.452Z,30.20
2018-08-22T15:49:24.703Z,30.10
2018-08-22T15:51:52.915Z,30.10
2018-08-22T15:54:21.121Z,30.00
2018-08-22T15:56:49.337Z,30.00
2018-08-22T15:59:18.385Z,29.90
2018-08-22T16:01:46.635Z,29.80
2018-08-22T16:04:14.870Z,29.70
2018-08-22T16:06:43.096Z,29.50
2018-08-22T16:09:17.248Z,29.40
2018-08-22T16:11:45.589Z,29.30
2018-08-22T16:14:13.795Z,29.30
2018-08-22T16:16:42.012Z,29.30
2018-08-22T16:19:10.254Z,29.30
2018-08-22T16:21:38.520Z,29.20
2018-08-22T16:24:07.156Z,29.20
2018-08-22T16:26:35.391Z,29.20
2018-08-22T16:29:03.704Z,29.20
2018-08-22T16:31:39.127Z,29.10
2018-08-22T16:34:09.581Z,29.10
2018-08-22T16:36:39.115Z,29.00
2018-08-22T16:39:07.922Z,29.00
2018-08-22T16:41:36.240Z,29.00
2018-08-22T16:44:04.558Z,29.00
2018-08-22T16:46:32.816Z,28.90
2018-08-22T16:49:01.091Z,28.90
2018-08-22T16:51:29.440Z,28.80
2018-08-22T16:54:12.201Z,28.80
2018-08-22T16:56:40.932Z,28.70
2018-08-22T16:59:10.281Z,28.70
2018-08-22T17:01:40.228Z,28.60
2018-08-22T17:04:08.441Z,28.50
2018-08-22T17:06:36.695Z,28.50
2018-08-22T17:09:07.498Z,28.30
2018-08-22T17:11:35.771Z,28.30
2018-08-22T17:14:04.055Z,28.30
2018-08-22T17:16:32.278Z,28.20
2018-08-22T17:19:00.654Z,28.20
2018-08-22T17:21:28.891Z,28.10
2018-08-22T17:23:57.136Z,28.00
2018-08-22T17:26:25.532Z,28.00
2018-08-22T17:28:55.583Z,27.90
2018-08-22T17:31:24.971Z,27.80
2018-08-22T17:33:57.140Z,27.70
2018-08-22T17:36:25.475Z,27.70
2018-08-22T17:38:55.856Z,27.50
2018-08-22T17:41:26.169Z,27.50
2018-08-22T17:44:13.031Z,27.40
2018-08-22T17:46:42.647Z,27.30
2018-08-22T17:49:11.032Z,27.20
2018-08-22T17:52:06.640Z,27.10
2018-08-22T17:54:35.239Z,27.00
2018-08-22T17:57:12.968Z,26.80
2018-08-22T17:59:42.350Z,26.60
2018-08-22T18:02:10.670Z,26.50
2018-08-22T18:04:50.303Z,26.30
2018-08-22T18:07:18.687Z,26.20
2018-08-22T18:12:09.115Z,26.10
2018-08-22T18:14:37.332Z,26.00
2018-08-22T18:17:06.324Z,25.90
2018-08-22T18:19:36.084Z,25.80
2018-08-22T18:22:04.487Z,25.70
2018-08-22T18:24:33.136Z,25.70
2018-08-22T18:27:05.051Z,25.60
2018-08-22T18:29:33.956Z,25.60
2018-08-22T18:32:02.388Z,25.40
2018-08-22T18:34:30.967Z,25.30
2018-08-22T18:36:59.268Z,25.20
2018-08-22T18:39:27.540Z,25.10
2018-08-22T18:41:55.859Z,25.00
2018-08-22T18:44:24.180Z,25.00
2018-08-22T18:46:52.460Z,24.80
2018-08-22T18:49:20.776Z,24.80
2018-08-22T18:51:49.067Z,24.70
2018-08-22T18:54:17.445Z,24.70
2018-08-22T18:56:45.725Z,24.60
2018-08-22T18:59:21.852Z,24.60
2018-08-22T19:01:50.121Z,24.50
2018-08-22T19:04:18.425Z,24.40
2018-08-22T19:06:47.256Z,24.40
2018-08-22T19:09:15.551Z,24.30
2018-08-22T19:11:43.862Z,24.20
2018-08-22T19:14:12.246Z,24.20
2018-08-22T19:16:40.508Z,24.10
2018-08-22T19:19:08.822Z,24.10
2018-08-22T19:21:37.834Z,24.00
2018-08-22T19:24:06.887Z,24.00
2018-08-22T19:26:35.287Z,23.90
2018-08-22T19:29:05.389Z,23.90
2018-08-22T19:31:33.983Z,23.80
2018-08-22T19:34:03.301Z,23.70
2018-08-22T19:36:31.690Z,23.70
2018-08-22T19:39:00.450Z,23.60
2018-08-22T19:41:32.874Z,23.60
2018-08-22T19:44:02.156Z,23.50
2018-08-22T19:46:30.560Z,23.40
2018-08-22T19:49:00.557Z,23.30
2018-08-22T19:51:29.865Z,23.30
2018-08-22T19:54:00.449Z,23.20
2018-08-22T19:56:29.333Z,23.20
2018-08-22T19:58:57.753Z,23.10
2018-08-22T20:01:26.297Z,23.00
2018-08-22T20:03:56.893Z,23.00
2018-08-22T20:06:26.476Z,22.90
2018-08-22T20:08:56.696Z,22.80
2018-08-22T20:11:25.253Z,22.70
2018-08-22T20:14:02.911Z,22.70
2018-08-22T20:16:31.744Z,22.60
2018-08-22T20:19:01.399Z,22.60
2018-08-22T20:21:35.143Z,22.50
2018-08-22T20:24:05.085Z,22.40
2018-08-22T20:26:33.784Z,22.40
2018-08-22T20:29:03.576Z,22.30
2018-08-22T20:31:32.504Z,22.30
2018-08-22T20:34:12.028Z,22.30
2018-08-22T20:36:40.823Z,22.20
2018-08-22T20:39:10.956Z,22.10
2018-08-22T20:41:39.955Z,21.90
2018-08-22T20:44:12.095Z,21.90
2018-08-22T20:46:41.764Z,21.80
2018-08-22T20:49:10.068Z,21.80
2018-08-22T20:51:38.335Z,21.80
2018-08-22T20:54:09.798Z,21.80
2018-08-22T20:56:45.243Z,21.70
2018-08-22T20:59:14.420Z,21.70
2018-08-22T21:01:43.910Z,21.60
2018-08-22T21:04:12.111Z,21.60
2018-08-22T21:06:40.389Z,21.50
2018-08-22T21:09:08.657Z,21.50
2018-08-22T21:11:38.228Z,21.40
2018-08-22T21:14:06.822Z,21.30
2018-08-22T21:16:35.520Z,21.20
2018-08-22T21:19:03.972Z,21.20
2018-08-22T21:21:32.282Z,21.10
2018-08-22T21:24:00.594Z,21.10
2018-08-22T21:26:42.262Z,21.00
2018-08-22T21:29:10.483Z,21.00
2018-08-22T21:31:38.708Z,20.90
2018-08-22T21:34:13.558Z,20.90
2018-08-22T21:36:44.457Z,20.90
2018-08-22T21:39:18.045Z,20.80
2018-08-22T21:41:46.975Z,20.80
2018-08-22T21:44:17.840Z,20.70
2018-08-22T21:46:47.914Z,20.60
2018-08-22T21:49:16.391Z,20.60
2018-08-22T21:51:44.677Z,20.50
2018-08-22T21:54:13.492Z,20.50
2018-08-22T21:56:41.694Z,20.50
2018-08-22T21:59:10.663Z,20.40
2018-08-22T22:01:46.264Z,20.40
2018-08-22T22:04:17.200Z,20.30
2018-08-22T22:06:45.436Z,20.30
2018-08-22T22:09:15.772Z,20.30
2018-08-22T22:11:44.388Z,20.30
2018-08-22T22:14:20.775Z,20.20
2018-08-22T22:16:49.308Z,20.20
2018-08-22T22:19:17.557Z,20.20
2018-08-22T22:21:45.776Z,20.20
2018-08-22T22:24:14.028Z,20.10
2018-08-22T22:26:42.216Z,20.10
2018-08-22T22:29:10.932Z,20.00
2018-08-22T22:31:39.872Z,20.00
2018-08-22T22:34:09.928Z,20.00
2018-08-22T22:36:38.161Z,20.00
2018-08-22T22:39:22.512Z,19.90
2018-08-22T22:41:50.732Z,19.90
2018-08-22T22:44:18.952Z,19.80
2018-08-22T22:46:47.188Z,19.80
2018-08-22T22:49:15.584Z,19.70
2018-08-22T22:51:43.877Z,19.70
2018-08-22T22:54:12.128Z,19.70
2018-08-22T22:56:40.327Z,19.60
2018-08-22T22:59:08.572Z,19.60
2018-08-22T23:01:36.834Z,19.60
2018-08-22T23:04:05.170Z,19.60
2018-08-22T23:06:33.730Z,19.50
2018-08-22T23:09:01.999Z,19.40
2018-08-22T23:11:30.264Z,19.40
2018-08-22T23:13:58.495Z,19.40
2018-08-22T23:16:32.223Z,19.40
2018-08-22T23:19:00.488Z,19.40
2018-08-22T23:21:28.703Z,19.30
2018-08-22T23:23:56.927Z,19.30
2018-08-22T23:26:25.127Z,19.20
2018-08-22T23:28:53.340Z,19.20
2018-08-22T23:31:22.248Z,19.00
2018-08-22T23:33:50.442Z,19.00
2018-08-22T23:36:18.675Z,19.00
2018-08-22T23:38:46.880Z,19.00
2018-08-22T23:41:15.087Z,18.90
2018-08-22T23:43:48.757Z,18.90
2018-08-22T23:46:16.972Z,18.90
2018-08-22T23:48:45.168Z,18.80
2018-08-22T23:51:14.283Z,18.80
2018-08-22T23:53:48.983Z,18.70
2018-08-22T23:56:30.390Z,18.70
2018-08-22T23:58:59.235Z,18.70
